sensor_id;sensor_type;location;lat;lon;timestamp;pressure;altitude;pressure_sealevel;temperature;humidity
68965;BME280;56017;48.680;8.998;2023-03-15T00:04:29;96300;;;2;80.5
68965;BME280;56017;48.680;8.998;2023-03-15T00:06:46;96300;;;1.9;80.5
68965;BME280;56017;48.680;8.998;2023-03-15T00:09:22;96300;;;1.9;81
68965;BME280;56017;48.680;8.998;2023-03-15T00:11:53;96310;;;2;80.5
68965;BME280;56017;48.680;8.998;2023-03-15T00:14:30;96320;;;2.2;80
68965;BME280;56017;48.680;8.998;2023-03-15T00:16:46;96320;;;2.1;80.5
68965;BME280;56017;48.680;8.998;2023-03-15T00:19:30;96320;;;2;80.5
68965;BME280;56017;48.680;8.998;2023-03-15T00:24:30;96330;;;2.2;80
68965;BME280;56017;48.680;8.998;2023-03-15T00:26:47;96340;;;2.1;80
68965;BME280;56017;48.680;8.998;2023-03-15T00:29:24;96340;;;2.1;80
68965;BME280;56017;48.680;8.998;2023-03-15T00:31:54;96340;;;2.1;80
68965;BME280;56017;48.680;8.998;2023-03-15T00:34:31;96350;;;2.1;80.5
68965;BME280;56017;48.680;8.998;2023-03-15T00:46:48;96370;;;2;80
68965;BME280;56017;48.680;8.998;2023-03-15T00:49:32;96380;;;2;80
68965;BME280;56017;48.680;8.998;2023-03-15T00:51:55;96380;;;1.9;80
68965;BME280;56017;48.680;8.998;2023-03-15T00:56:50;96380;;;2;80.5
68965;BME280;56017;48.680;8.998;2023-03-15T00:59:32;96380;;;2.1;80
68965;BME280;56017;48.680;8.998;2023-03-15T01:01:50;96390;;;2;80
68965;BME280;56017;48.680;8.998;2023-03-15T01:06:50;96400;;;2.1;80.5
68965;BME280;56017;48.680;8.998;2023-03-15T01:09:21;96400;;;2.2;80
68965;BME280;56017;48.680;8.998;2023-03-15T01:17:05;96410;;;1.9;80
68965;BME280;56017;48.680;8.998;2023-03-15T01:21:52;96410;;;1.8;79.5
68965;BME280;56017;48.680;8.998;2023-03-15T01:24:37;96420;;;1.8;79.5
68965;BME280;56017;48.680;8.998;2023-03-15T01:29:24;96410;;;1.7;80
68965;BME280;56017;48.680;8.998;2023-03-15T01:32:07;96410;;;1.6;80
68965;BME280;56017;48.680;8.998;2023-03-15T01:37:08;96430;;;1.6;80
68965;BME280;56017;48.680;8.998;2023-03-15T01:39:25;96430;;;1.6;80
68965;BME280;56017;48.680;8.998;2023-03-15T01:42:08;96440;;;1.5;80
68965;BME280;56017;48.680;8.998;2023-03-15T01:44:44;96440;;;1.5;80
68965;BME280;56017;48.680;8.998;2023-03-15T01:47:02;96440;;;1.5;80
68965;BME280;56017;48.680;8.998;2023-03-15T01:49:26;96440;;;1.5;80
68965;BME280;56017;48.680;8.998;2023-03-15T01:52:10;96450;;;1.4;80
68965;BME280;56017;48.680;8.998;2023-03-15T01:57:15;96450;;;1.3;79.5
68965;BME280;56017;48.680;8.998;2023-03-15T01:59:28;96460;;;1.3;79.5
68965;BME280;56017;48.680;8.998;2023-03-15T02:07:03;96460;;;1.1;79.5
68965;BME280;56017;48.680;8.998;2023-03-15T02:09:29;96460;;;1.1;79.5
68965;BME280;56017;48.680;8.998;2023-03-15T02:17:11;96470;;;1.1;79.5
68965;BME280;56017;48.680;8.998;2023-03-15T02:19:32;96470;;;1;79.5
68965;BME280;56017;48.680;8.998;2023-03-15T02:24:33;96480;;;1;79.5
68965;BME280;56017;48.680;8.998;2023-03-15T02:27:05;96490;;;1;79.5
68965;BME280;56017;48.680;8.998;2023-03-15T02:29:35;96490;;;1;79.5
68965;BME280;56017;48.680;8.998;2023-03-15T02:32:12;96490;;;0.9;79.5
68965;BME280;56017;48.680;8.998;2023-03-15T02:34:29;96490;;;0.9;79.5
68965;BME280;56017;48.680;8.998;2023-03-15T02:37:06;96490;;;0.9;79.5
68965;BME280;56017;48.680;8.998;2023-03-15T02:39:29;96500;;;0.9;79.5
68965;BME280;56017;48.680;8.998;2023-03-15T02:42:13;96510;;;0.9;79.5
68965;BME280;56017;48.680;8.998;2023-03-15T02:47:15;96510;;;0.8;79.5
68965;BME280;56017;48.680;8.998;2023-03-15T02:49:30;96510;;;0.8;79.5
68965;BME280;56017;48.680;8.998;2023-03-15T02:54:30;96520;;;0.9;79.5
68965;BME280;56017;48.680;8.998;2023-03-15T02:57:07;96520;;;0.8;79.5
68965;BME280;56017;48.680;8.998;2023-03-15T02:59:30;96520;;;0.8;79.5
68965;BME280;56017;48.680;8.998;2023-03-15T03:02:15;96530;;;0.8;79.5
68965;BME280;56017;48.680;8.998;2023-03-15T03:07:14;96540;;;0.9;79
68965;BME280;56017;48.680;8.998;2023-03-15T03:09:31;96540;;;0.8;79
68965;BME280;56017;48.680;8.998;2023-03-15T03:14:31;96550;;;0.8;79.5
68965;BME280;56017;48.680;8.998;2023-03-15T03:17:08;96560;;;0.8;79.5
68965;BME280;56017;48.680;8.998;2023-03-15T03:19:32;96560;;;0.8;79.5
68965;BME280;56017;48.680;8.998;2023-03-15T03:22:09;96570;;;0.8;79.5
68965;BME280;56017;48.680;8.998;2023-03-15T03:24:32;96570;;;0.7;79.5
68965;BME280;56017;48.680;8.998;2023-03-15T03:27:09;96570;;;0.8;79
68965;BME280;56017;48.680;8.998;2023-03-15T03:34:33;96590;;;0.8;79
68965;BME280;56017;48.680;8.998;2023-03-15T03:37:10;96590;;;0.8;79
68965;BME280;56017;48.680;8.998;2023-03-15T03:39:33;96580;;;0.7;79
68965;BME280;56017;48.680;8.998;2023-03-15T03:42:10;96590;;;0.7;79
68965;BME280;56017;48.680;8.998;2023-03-15T03:44:34;96590;;;0.7;79
68965;BME280;56017;48.680;8.998;2023-03-15T03:47:11;96600;;;0.7;79
68965;BME280;56017;48.680;8.998;2023-03-15T03:49:34;96610;;;0.6;79
68965;BME280;56017;48.680;8.998;2023-03-15T03:52:11;96610;;;0.5;79
68965;BME280;56017;48.680;8.998;2023-03-15T03:54:34;96610;;;0.5;79
68965;BME280;56017;48.680;8.998;2023-03-15T03:59:36;96620;;;0.5;79
68965;BME280;56017;48.680;8.998;2023-03-15T04:02:18;96630;;;0.6;79
68965;BME280;56017;48.680;8.998;2023-03-15T04:04:35;96630;;;0.5;79
68965;BME280;56017;48.680;8.998;2023-03-15T04:07:12;96640;;;0.5;79
68965;BME280;56017;48.680;8.998;2023-03-15T04:09:35;96640;;;0.5;79
68965;BME280;56017;48.680;8.998;2023-03-15T04:12:19;96640;;;0.5;79.5
68965;BME280;56017;48.680;8.998;2023-03-15T04:22:19;96650;;;0.5;79.5
68965;BME280;56017;48.680;8.998;2023-03-15T04:24:36;96650;;;0.6;79.5
68965;BME280;56017;48.680;8.998;2023-03-15T04:27:13;96650;;;0.6;79.5
68965;BME280;56017;48.680;8.998;2023-03-15T04:29:40;96650;;;0.7;79.5
68965;BME280;56017;48.680;8.998;2023-03-15T04:32:20;96660;;;0.7;79
68965;BME280;56017;48.680;8.998;2023-03-15T04:37:21;96670;;;0.5;79
68965;BME280;56017;48.680;8.998;2023-03-15T04:39:38;96660;;;0.5;79
68965;BME280;56017;48.680;8.998;2023-03-15T04:44:38;96670;;;0.4;79
68965;BME280;56017;48.680;8.998;2023-03-15T04:47:15;96680;;;0.4;79.5
68965;BME280;56017;48.680;8.998;2023-03-15T04:49:39;96680;;;0.3;79.5
68965;BME280;56017;48.680;8.998;2023-03-15T04:52:22;96670;;;0.3;79.5
68965;BME280;56017;48.680;8.998;2023-03-15T04:57:15;96680;;;0.5;79.5
68965;BME280;56017;48.680;8.998;2023-03-15T05:02:16;96680;;;0.6;79
68965;BME280;56017;48.680;8.998;2023-03-15T05:04:40;96670;;;0.5;79
68965;BME280;56017;48.680;8.998;2023-03-15T05:07:16;96680;;;0.6;79
68965;BME280;56017;48.680;8.998;2023-03-15T05:12:17;96670;;;0.6;79
68965;BME280;56017;48.680;8.998;2023-03-15T05:14:40;96660;;;0.6;78.5
68965;BME280;56017;48.680;8.998;2023-03-15T05:17:23;96670;;;0.5;78.5
68965;BME280;56017;48.680;8.998;2023-03-15T05:19:41;96670;;;0.4;78.5
68965;BME280;56017;48.680;8.998;2023-03-15T05:22:17;96670;;;0.5;79
68965;BME280;56017;48.680;8.998;2023-03-15T05:24:41;96670;;;0.5;79
68965;BME280;56017;48.680;8.998;2023-03-15T05:27:18;96670;;;0.6;79
68965;BME280;56017;48.680;8.998;2023-03-15T05:29:42;96670;;;0.7;79
68965;BME280;56017;48.680;8.998;2023-03-15T05:32:18;96680;;;0.7;79
68965;BME280;56017;48.680;8.998;2023-03-15T05:34:43;96680;;;0.8;79
68965;BME280;56017;48.680;8.998;2023-03-15T05:37:20;96680;;;0.8;79
68965;BME280;56017;48.680;8.998;2023-03-15T05:39:51;96690;;;0.8;79
68965;BME280;56017;48.680;8.998;2023-03-15T05:42:19;96690;;;0.8;79
68965;BME280;56017;48.680;8.998;2023-03-15T05:44:42;96690;;;0.8;78.5
68965;BME280;56017;48.680;8.998;2023-03-15T05:47:19;96680;;;0.7;79
68965;BME280;56017;48.680;8.998;2023-03-15T05:49:50;96690;;;0.6;79
68965;BME280;56017;48.680;8.998;2023-03-15T05:52:19;96680;;;0.6;79
68965;BME280;56017;48.680;8.998;2023-03-15T05:54:43;96690;;;0.6;79
68965;BME280;56017;48.680;8.998;2023-03-15T05:57:21;96690;;;0.6;79
68965;BME280;56017;48.680;8.998;2023-03-15T05:59:44;96690;;;0.7;79
68965;BME280;56017;48.680;8.998;2023-03-15T06:02:27;96690;;;0.7;79
68965;BME280;56017;48.680;8.998;2023-03-15T06:04:44;96690;;;0.7;79
68965;BME280;56017;48.680;8.998;2023-03-15T06:09:44;96690;;;0.7;79
68965;BME280;56017;48.680;8.998;2023-03-15T06:12:09;96700;;;0.7;79
68965;BME280;56017;48.680;8.998;2023-03-15T06:14:40;96700;;;0.7;79
68965;BME280;56017;48.680;8.998;2023-03-15T06:17:11;96700;;;0.7;79
68965;BME280;56017;48.680;8.998;2023-03-15T06:19:42;96700;;;0.8;79
68965;BME280;56017;48.680;8.998;2023-03-15T06:22:12;96710;;;0.8;79
68965;BME280;56017;48.680;8.998;2023-03-15T06:25:03;96720;;;0.9;79
68965;BME280;56017;48.680;8.998;2023-03-15T06:27:27;96710;;;0.9;79
68965;BME280;56017;48.680;8.998;2023-03-15T06:29:51;96710;;;1;79
68965;BME280;56017;48.680;8.998;2023-03-15T06:32:27;96710;;;1;79
68965;BME280;56017;48.680;8.998;2023-03-15T06:37:16;96710;;;1.1;79
68965;BME280;56017;48.680;8.998;2023-03-15T06:47:19;96720;;;1.1;79
68965;BME280;56017;48.680;8.998;2023-03-15T06:52:21;96720;;;1.3;79
68965;BME280;56017;48.680;8.998;2023-03-15T06:59:55;96720;;;1.5;79
68965;BME280;56017;48.680;8.998;2023-03-15T07:02:25;96720;;;1.6;79
68965;BME280;56017;48.680;8.998;2023-03-15T07:05:03;96720;;;1.7;79
68965;BME280;56017;48.680;8.998;2023-03-15T07:07:28;96730;;;1.7;79
68965;BME280;56017;48.680;8.998;2023-03-15T07:12:31;96730;;;1.9;79
68965;BME280;56017;48.680;8.998;2023-03-15T07:22:33;96740;;;2;79
68965;BME280;56017;48.680;8.998;2023-03-15T07:30:08;96750;;;2.1;79
68965;BME280;56017;48.680;8.998;2023-03-15T07:37:39;96760;;;2.2;79
68965;BME280;56017;48.680;8.998;2023-03-15T07:47:43;96760;;;2.4;79
68965;BME280;56017;48.680;8.998;2023-03-15T08:00:24;96760;;;2.6;79
68965;BME280;56017;48.680;8.998;2023-03-15T08:07:51;96760;;;2.8;79.5
68965;BME280;56017;48.680;8.998;2023-03-15T08:10:22;96760;;;2.9;79
68965;BME280;56017;48.680;8.998;2023-03-15T08:12:52;96770;;;3;79
68965;BME280;56017;48.680;8.998;2023-03-15T08:17:55;96760;;;3.1;79
68965;BME280;56017;48.680;8.998;2023-03-15T08:20:32;96770;;;3.1;79
68965;BME280;56017;48.680;8.998;2023-03-15T08:22:56;96770;;;3.2;79
68965;BME280;56017;48.680;8.998;2023-03-15T08:27:59;96770;;;3.5;79
68965;BME280;56017;48.680;8.998;2023-03-15T08:35:32;96760;;;3.8;79
68965;BME280;56017;48.680;8.998;2023-03-15T08:38:02;96770;;;3.8;79
68965;BME280;56017;48.680;8.998;2023-03-15T08:45:35;96770;;;4.2;79
68965;BME280;56017;48.680;8.998;2023-03-15T08:48:06;96770;;;4.3;79
68965;BME280;56017;48.680;8.998;2023-03-15T08:53:08;96780;;;4.6;79
68965;BME280;56017;48.680;8.998;2023-03-15T08:58:10;96780;;;4.9;79
68965;BME280;56017;48.680;8.998;2023-03-15T09:03:12;96780;;;4.8;78.5
68965;BME280;56017;48.680;8.998;2023-03-15T09:05:43;96790;;;4.6;79
68965;BME280;56017;48.680;8.998;2023-03-15T09:08:14;96790;;;4.9;78.5
68965;BME280;56017;48.680;8.998;2023-03-15T09:10:45;96800;;;5;79
68965;BME280;56017;48.680;8.998;2023-03-15T09:15:49;96800;;;5.1;79
68965;BME280;56017;48.680;8.998;2023-03-15T09:18:18;96800;;;5.2;79
68965;BME280;56017;48.680;8.998;2023-03-15T09:23:20;96800;;;5.4;79
68965;BME280;56017;48.680;8.998;2023-03-15T09:28:22;96800;;;5.3;79.5
68965;BME280;56017;48.680;8.998;2023-03-15T09:38:27;96810;;;5.6;79.5
68965;BME280;56017;48.680;8.998;2023-03-15T09:43:47;96810;;;5.4;79.5
68965;BME280;56017;48.680;8.998;2023-03-15T09:46:09;96810;;;5.3;79.5
68965;BME280;56017;48.680;8.998;2023-03-15T09:51:12;96810;;;5;79.5
68965;BME280;56017;48.680;8.998;2023-03-15T09:53:33;96810;;;4.8;79.5
68965;BME280;56017;48.680;8.998;2023-03-15T09:56:02;96820;;;4.9;79.5
68965;BME280;56017;48.680;8.998;2023-03-15T09:58:33;96820;;;5.1;80
68965;BME280;56017;48.680;8.998;2023-03-15T10:01:04;96820;;;5.8;81.5
68965;BME280;56017;48.680;8.998;2023-03-15T10:03:44;96820;;;7.1;81
68965;BME280;56017;48.680;8.998;2023-03-15T10:08:37;96820;;;7.8;80.5
68965;BME280;56017;48.680;8.998;2023-03-15T10:11:41;96810;;;8.5;79.5
68965;BME280;56017;48.680;8.998;2023-03-15T10:13:42;96810;;;8.2;77.5
68965;BME280;56017;48.680;8.998;2023-03-15T10:16:19;96820;;;7.6;79
68965;BME280;56017;48.680;8.998;2023-03-15T10:18:44;96810;;;7.2;78.5
68965;BME280;56017;48.680;8.998;2023-03-15T10:21:15;96810;;;6.9;79.5
68965;BME280;56017;48.680;8.998;2023-03-15T10:23:52;96800;;;7;79
68965;BME280;56017;48.680;8.998;2023-03-15T10:26:22;96800;;;7.1;79
68965;BME280;56017;48.680;8.998;2023-03-15T10:28:45;96800;;;7.3;79.5
68965;BME280;56017;48.680;8.998;2023-03-15T10:31:17;96810;;;7.6;79.5
68965;BME280;56017;48.680;8.998;2023-03-15T10:33:47;96790;;;8.1;79.5
68965;BME280;56017;48.680;8.998;2023-03-15T10:36:19;96790;;;8.4;78
68965;BME280;56017;48.680;8.998;2023-03-15T10:38:49;96790;;;8;78
68965;BME280;56017;48.680;8.998;2023-03-15T10:41:28;96780;;;8.2;79
68965;BME280;56017;48.680;8.998;2023-03-15T10:43:59;96790;;;8.3;78.5
68965;BME280;56017;48.680;8.998;2023-03-15T10:46:22;96790;;;8.4;78
68965;BME280;56017;48.680;8.998;2023-03-15T10:49:07;96790;;;8.5;78.5
68965;BME280;56017;48.680;8.998;2023-03-15T10:51:26;96790;;;8.6;78.5
68965;BME280;56017;48.680;8.998;2023-03-15T10:53:59;96790;;;8.7;78.5
68965;BME280;56017;48.680;8.998;2023-03-15T10:56:27;96790;;;9.1;78.5
68965;BME280;56017;48.680;8.998;2023-03-15T10:58:57;96790;;;9.3;78.5
68965;BME280;56017;48.680;8.998;2023-03-15T11:01:31;96790;;;9.6;78
68965;BME280;56017;48.680;8.998;2023-03-15T11:04:09;96800;;;9.7;77.5
68965;BME280;56017;48.680;8.998;2023-03-15T11:06:31;96780;;;9.3;78
68965;BME280;56017;48.680;8.998;2023-03-15T11:09:09;96780;;;8.9;78
68965;BME280;56017;48.680;8.998;2023-03-15T11:11:47;96790;;;8.2;78.5
68965;BME280;56017;48.680;8.998;2023-03-15T11:14:04;96780;;;7.9;79.5
68965;BME280;56017;48.680;8.998;2023-03-15T11:16:34;96790;;;8.1;79.5
68965;BME280;56017;48.680;8.998;2023-03-15T11:19:12;96780;;;7.9;79
68965;BME280;56017;48.680;8.998;2023-03-15T11:21:35;96780;;;7.6;79.5
68965;BME280;56017;48.680;8.998;2023-03-15T11:24:09;96790;;;7.4;80
68965;BME280;56017;48.680;8.998;2023-03-15T11:26:44;96790;;;7.3;80
68965;BME280;56017;48.680;8.998;2023-03-15T11:31:39;96790;;;7.1;80
68965;BME280;56017;48.680;8.998;2023-03-15T11:34:11;96780;;;7.1;80.5
68965;BME280;56017;48.680;8.998;2023-03-15T11:36:45;96800;;;7.3;80.5
68965;BME280;56017;48.680;8.998;2023-03-15T11:39:13;96790;;;7.3;79.5
68965;BME280;56017;48.680;8.998;2023-03-15T11:44:26;96790;;;7.3;79.5
68965;BME280;56017;48.680;8.998;2023-03-15T11:46:47;96790;;;7.3;79.5
68965;BME280;56017;48.680;8.998;2023-03-15T11:49:18;96790;;;7.3;80
68965;BME280;56017;48.680;8.998;2023-03-15T11:51:54;96800;;;7.3;80
68965;BME280;56017;48.680;8.998;2023-03-15T11:54:18;96790;;;7.3;80
68965;BME280;56017;48.680;8.998;2023-03-15T11:56:56;96790;;;7.3;80
68965;BME280;56017;48.680;8.998;2023-03-15T11:59:24;96790;;;7.6;79.5
68965;BME280;56017;48.680;8.998;2023-03-15T12:01:59;96790;;;7.6;80
68965;BME280;56017;48.680;8.998;2023-03-15T12:06:54;96800;;;8;80
68965;BME280;56017;48.680;8.998;2023-03-15T12:09:38;96790;;;8.3;79.5
68965;BME280;56017;48.680;8.998;2023-03-15T12:11:56;96790;;;8.4;79
68965;BME280;56017;48.680;8.998;2023-03-15T12:14:33;96790;;;8.5;79
68965;BME280;56017;48.680;8.998;2023-03-15T12:18:11;96790;;;8.5;80
68965;BME280;56017;48.680;8.998;2023-03-15T12:19:35;96790;;;8.5;79.5
68965;BME280;56017;48.680;8.998;2023-03-15T12:22:10;96790;;;8.4;80
68965;BME280;56017;48.680;8.998;2023-03-15T12:27:02;96780;;;8.5;79
68965;BME280;56017;48.680;8.998;2023-03-15T12:29:32;96780;;;8.6;80
68965;BME280;56017;48.680;8.998;2023-03-15T12:32:11;96780;;;8.7;80
68965;BME280;56017;48.680;8.998;2023-03-15T12:37:14;96780;;;9.2;79.5
68965;BME280;56017;48.680;8.998;2023-03-15T12:39:37;96780;;;9.7;79.5
68965;BME280;56017;48.680;8.998;2023-03-15T12:42:58;96780;;;10.1;79.5
68965;BME280;56017;48.680;8.998;2023-03-15T12:44:39;96770;;;11.1;79
68965;BME280;56017;48.680;8.998;2023-03-15T12:49:41;96770;;;10.2;78
68965;BME280;56017;48.680;8.998;2023-03-15T12:52:24;96770;;;9.4;79
68965;BME280;56017;48.680;8.998;2023-03-15T12:54:49;96780;;;9;79.5
68965;BME280;56017;48.680;8.998;2023-03-15T12:57:14;96780;;;8.8;80.5
68965;BME280;56017;48.680;8.998;2023-03-15T12:59:48;96780;;;8.9;80.5
68965;BME280;56017;48.680;8.998;2023-03-15T13:02:37;96780;;;8.8;80
68965;BME280;56017;48.680;8.998;2023-03-15T13:04:45;96780;;;8.6;80
68965;BME280;56017;48.680;8.998;2023-03-15T13:12:21;96780;;;8;80
68965;BME280;56017;48.680;8.998;2023-03-15T13:17:30;96770;;;8.2;81
68965;BME280;56017;48.680;8.998;2023-03-15T13:22:30;96780;;;10.7;79.5
68965;BME280;56017;48.680;8.998;2023-03-15T13:25:02;96780;;;10.5;79
68965;BME280;56017;48.680;8.998;2023-03-15T13:27:28;96780;;;10.2;78.5
68965;BME280;56017;48.680;8.998;2023-03-15T13:29:55;96780;;;9.3;78.5
68965;BME280;56017;48.680;8.998;2023-03-15T13:32:33;96780;;;8.6;80
68965;BME280;56017;48.680;8.998;2023-03-15T13:37:35;96790;;;8.1;80
68965;BME280;56017;48.680;8.998;2023-03-15T13:40:10;96800;;;7.8;80.5
68965;BME280;56017;48.680;8.998;2023-03-15T13:42:38;96810;;;7.6;80.5
68965;BME280;56017;48.680;8.998;2023-03-15T13:45:05;96810;;;7.4;80.5
68965;BME280;56017;48.680;8.998;2023-03-15T13:47:41;96820;;;7.1;80.5
68965;BME280;56017;48.680;8.998;2023-03-15T13:50:04;96820;;;6.9;81
68965;BME280;56017;48.680;8.998;2023-03-15T13:52:34;96830;;;6.6;80.5
68965;BME280;56017;48.680;8.998;2023-03-15T13:55:05;96830;;;6.1;80.5
68965;BME280;56017;48.680;8.998;2023-03-15T13:57:36;96840;;;5.7;80.5
68965;BME280;56017;48.680;8.998;2023-03-15T14:00:15;96830;;;5.3;81
68965;BME280;56017;48.680;8.998;2023-03-15T14:02:46;96840;;;5.2;82
68965;BME280;56017;48.680;8.998;2023-03-15T14:07:40;96840;;;6.1;81.5
68965;BME280;56017;48.680;8.998;2023-03-15T14:12:48;96830;;;6.5;81.5
68965;BME280;56017;48.680;8.998;2023-03-15T14:15:14;96830;;;6.6;80.5
68965;BME280;56017;48.680;8.998;2023-03-15T14:18:47;96820;;;6.7;80.5
68965;BME280;56017;48.680;8.998;2023-03-15T14:20:23;96810;;;6.9;81
68965;BME280;56017;48.680;8.998;2023-03-15T14:22:55;96810;;;8;81
68965;BME280;56017;48.680;8.998;2023-03-15T14:27:54;96790;;;8.5;79.5
68965;BME280;56017;48.680;8.998;2023-03-15T14:30:26;96790;;;8.2;79
68965;BME280;56017;48.680;8.998;2023-03-15T14:32:59;96800;;;8;80
68965;BME280;56017;48.680;8.998;2023-03-15T14:37:59;96790;;;7.7;80.5
68965;BME280;56017;48.680;8.998;2023-03-15T14:47:57;96810;;;7.2;80
68965;BME280;56017;48.680;8.998;2023-03-15T14:50:35;96810;;;6.9;80.5
68965;BME280;56017;48.680;8.998;2023-03-15T14:52:57;96820;;;6.8;81
68965;BME280;56017;48.680;8.998;2023-03-15T14:58:00;96830;;;6.6;80.5
68965;BME280;56017;48.680;8.998;2023-03-15T15:00:37;96840;;;6.5;80.5
68965;BME280;56017;48.680;8.998;2023-03-15T15:03:02;96840;;;6.2;80.5
68965;BME280;56017;48.680;8.998;2023-03-15T15:08:05;96850;;;5.8;80.5
68965;BME280;56017;48.680;8.998;2023-03-15T15:10:34;96860;;;5.5;80.5
68965;BME280;56017;48.680;8.998;2023-03-15T15:13:17;96860;;;5.1;81
68965;BME280;56017;48.680;8.998;2023-03-15T15:15:36;96870;;;4.7;80.5
68965;BME280;56017;48.680;8.998;2023-03-15T15:18:07;96870;;;4.2;81.5
68965;BME280;56017;48.680;8.998;2023-03-15T15:20:38;96870;;;4.1;82
68965;BME280;56017;48.680;8.998;2023-03-15T15:28:17;96880;;;4.4;81.5
68965;BME280;56017;48.680;8.998;2023-03-15T15:33:21;96880;;;4.5;81.5
68965;BME280;56017;48.680;8.998;2023-03-15T15:38:15;96870;;;4.4;82
68965;BME280;56017;48.680;8.998;2023-03-15T15:53:21;96880;;;5;80.5
68965;BME280;56017;48.680;8.998;2023-03-15T15:55:59;96880;;;4.9;81
68965;BME280;56017;48.680;8.998;2023-03-15T15:58:29;96880;;;4.9;80.5
68965;BME280;56017;48.680;8.998;2023-03-15T16:03:25;96900;;;4.9;81
68965;BME280;56017;48.680;8.998;2023-03-15T16:08:27;96900;;;5.1;80.5
68965;BME280;56017;48.680;8.998;2023-03-15T16:10:57;96900;;;5;80.5
68965;BME280;56017;48.680;8.998;2023-03-15T16:13:29;96900;;;4.9;81
68965;BME280;56017;48.680;8.998;2023-03-15T16:16:09;96900;;;4.9;81.5
68965;BME280;56017;48.680;8.998;2023-03-15T16:18:37;96910;;;5.1;80.5
68965;BME280;56017;48.680;8.998;2023-03-15T16:21:40;96910;;;5.1;80.5
68965;BME280;56017;48.680;8.998;2023-03-15T16:23:32;96910;;;5;80
68965;BME280;56017;48.680;8.998;2023-03-15T16:26:13;96920;;;4.8;81
68965;BME280;56017;48.680;8.998;2023-03-15T16:28:35;96930;;;4.7;81
68965;BME280;56017;48.680;8.998;2023-03-15T16:31:05;96930;;;4.6;81
68965;BME280;56017;48.680;8.998;2023-03-15T16:33:43;96930;;;4.6;80.5
68965;BME280;56017;48.680;8.998;2023-03-15T16:41:16;96950;;;4;81
68965;BME280;56017;48.680;8.998;2023-03-15T16:43:41;96950;;;3.7;81
68965;BME280;56017;48.680;8.998;2023-03-15T16:46:12;96950;;;3.5;81
68965;BME280;56017;48.680;8.998;2023-03-15T16:48:43;96940;;;3.1;81.5
68965;BME280;56017;48.680;8.998;2023-03-15T16:51:14;96940;;;3;81.5
68965;BME280;56017;48.680;8.998;2023-03-15T16:53:45;96940;;;2.9;81.5
68965;BME280;56017;48.680;8.998;2023-03-15T16:56:22;96940;;;3;81.5
68965;BME280;56017;48.680;8.998;2023-03-15T16:58:53;96940;;;3.1;81.5
68965;BME280;56017;48.680;8.998;2023-03-15T17:01:24;96940;;;3.1;81.5
68965;BME280;56017;48.680;8.998;2023-03-15T17:03:48;96940;;;3.3;81.5
68965;BME280;56017;48.680;8.998;2023-03-15T17:08:58;96940;;;3.6;80.5
68965;BME280;56017;48.680;8.998;2023-03-15T17:11:28;96950;;;3.6;80.5
68965;BME280;56017;48.680;8.998;2023-03-15T17:13:52;96950;;;3.5;80.5
68965;BME280;56017;48.680;8.998;2023-03-15T17:16:30;96950;;;3.5;80.5
68965;BME280;56017;48.680;8.998;2023-03-15T17:18:55;96960;;;3.5;80
68965;BME280;56017;48.680;8.998;2023-03-15T17:21:32;96960;;;3.6;80
68965;BME280;56017;48.680;8.998;2023-03-15T17:23:56;96960;;;3.5;80
68965;BME280;56017;48.680;8.998;2023-03-15T17:26:34;96960;;;3.6;79.5
68965;BME280;56017;48.680;8.998;2023-03-15T17:34:03;96970;;;3.5;79
68965;BME280;56017;48.680;8.998;2023-03-15T17:36:38;96970;;;3.6;79.5
68965;BME280;56017;48.680;8.998;2023-03-15T17:39:03;96980;;;3.6;79
68965;BME280;56017;48.680;8.998;2023-03-15T17:41:44;96970;;;3.6;79.5
68965;BME280;56017;48.680;8.998;2023-03-15T17:44:04;96980;;;3.7;79
68965;BME280;56017;48.680;8.998;2023-03-15T17:46:42;96970;;;3.7;79
68965;BME280;56017;48.680;8.998;2023-03-15T17:49:06;96970;;;3.7;79.5
68965;BME280;56017;48.680;8.998;2023-03-15T17:51:43;96980;;;3.6;79.5
68965;BME280;56017;48.680;8.998;2023-03-15T17:54:10;96980;;;3.7;79.5
68965;BME280;56017;48.680;8.998;2023-03-15T17:56:45;96980;;;3.7;79
68965;BME280;56017;48.680;8.998;2023-03-15T17:59:10;96980;;;3.7;79
68965;BME280;56017;48.680;8.998;2023-03-15T18:01:47;96980;;;3.7;79
68965;BME280;56017;48.680;8.998;2023-03-15T18:04:12;96990;;;3.8;79
68965;BME280;56017;48.680;8.998;2023-03-15T18:11:52;96990;;;3.8;79.5
68965;BME280;56017;48.680;8.998;2023-03-15T18:14:16;97000;;;3.9;79.5
68965;BME280;56017;48.680;8.998;2023-03-15T18:16:53;97000;;;4;79
68965;BME280;56017;48.680;8.998;2023-03-15T18:19:17;97010;;;4.2;78.5
68965;BME280;56017;48.680;8.998;2023-03-15T18:24:19;97000;;;4;78.5
68965;BME280;56017;48.680;8.998;2023-03-15T18:26:57;97010;;;3.9;79
68965;BME280;56017;48.680;8.998;2023-03-15T18:29:21;97010;;;3.9;78.5
68965;BME280;56017;48.680;8.998;2023-03-15T18:31:59;97020;;;3.8;78.5
68965;BME280;56017;48.680;8.998;2023-03-15T18:34:23;97010;;;3.7;79
68965;BME280;56017;48.680;8.998;2023-03-15T18:36:54;97010;;;3.7;78.5
68965;BME280;56017;48.680;8.998;2023-03-15T18:39:25;97010;;;3.6;78.5
68965;BME280;56017;48.680;8.998;2023-03-15T18:42:03;97010;;;3.5;78.5
68965;BME280;56017;48.680;8.998;2023-03-15T18:44:27;97010;;;3.4;78.5
68965;BME280;56017;48.680;8.998;2023-03-15T18:49:29;97010;;;3.3;78
68965;BME280;56017;48.680;8.998;2023-03-15T18:52:06;97020;;;3.1;78.5
68965;BME280;56017;48.680;8.998;2023-03-15T18:54:31;97010;;;3;78.5
68965;BME280;56017;48.680;8.998;2023-03-15T18:57:09;97010;;;3;79
68965;BME280;56017;48.680;8.998;2023-03-15T18:59:33;97010;;;2.9;79
68965;BME280;56017;48.680;8.998;2023-03-15T19:02:10;97010;;;2.9;79
68965;BME280;56017;48.680;8.998;2023-03-15T19:04:35;97010;;;2.9;78.5
68965;BME280;56017;48.680;8.998;2023-03-15T19:07:06;97010;;;2.9;79
68965;BME280;56017;48.680;8.998;2023-03-15T19:09:43;97010;;;2.9;78.5
68965;BME280;56017;48.680;8.998;2023-03-15T19:14:39;97010;;;2.6;78.5
68965;BME280;56017;48.680;8.998;2023-03-15T19:17:16;97010;;;2.6;78.5
68965;BME280;56017;48.680;8.998;2023-03-15T19:19:41;97010;;;2.6;78.5
68965;BME280;56017;48.680;8.998;2023-03-15T19:22:11;97010;;;2.5;78.5
68965;BME280;56017;48.680;8.998;2023-03-15T19:24:43;97010;;;2.5;78.5
68965;BME280;56017;48.680;8.998;2023-03-15T19:27:20;97010;;;2.4;78.5
68965;BME280;56017;48.680;8.998;2023-03-15T19:29:45;97010;;;2.3;78.5
68965;BME280;56017;48.680;8.998;2023-03-15T19:32:23;97010;;;2.2;79
68965;BME280;56017;48.680;8.998;2023-03-15T19:34:47;97010;;;2.2;78.5
68965;BME280;56017;48.680;8.998;2023-03-15T19:37:24;97020;;;2.1;78.5
68965;BME280;56017;48.680;8.998;2023-03-15T19:44:51;97030;;;2.2;78.5